createdAt,value
2018-07-13T00:00:26.685Z,980.17
2018-07-13T00:01:26.616Z,980.19
2018-07-13T00:02:26.542Z,980.20
2018-07-13T00:03:26.460Z,980.19
2018-07-13T00:04:26.388Z,980.22
2018-07-13T00:05:26.314Z,980.16
2018-07-13T00:06:26.241Z,980.21
2018-07-13T00:07:26.179Z,980.18
2018-07-13T00:08:26.097Z,980.19
2018-07-13T00:09:26.020Z,980.18
2018-07-13T00:10:25.981Z,980.16
2018-07-13T00:11:25.889Z,980.17
2018-07-13T00:12:25.797Z,980.18
2018-07-13T00:13:25.732Z,980.18
2018-07-13T00:14:25.653Z,980.18
2018-07-13T00:15:25.578Z,980.17
2018-07-13T00:16:25.504Z,980.18
2018-07-13T00:17:25.428Z,980.16
2018-07-13T00:18:25.356Z,980.15
2018-07-13T00:19:25.292Z,980.13
2018-07-13T00:20:25.214Z,980.16
2018-07-13T00:21:25.134Z,980.14
2018-07-13T00:22:25.060Z,980.15
2018-07-13T00:23:24.990Z,980.16
2018-07-13T00:24:24.921Z,980.17
2018-07-13T00:25:24.848Z,980.17
2018-07-13T00:26:24.769Z,980.15
2018-07-13T00:27:24.695Z,980.18
2018-07-13T00:28:24.619Z,980.19
2018-07-13T00:29:24.544Z,980.21
2018-07-13T00:30:24.471Z,980.22
2018-07-13T00:31:24.408Z,980.25
2018-07-13T00:32:24.324Z,980.24
2018-07-13T00:33:24.254Z,980.22
2018-07-13T00:34:24.176Z,980.25
2018-07-13T00:35:24.105Z,980.26
2018-07-13T00:36:24.031Z,980.29
2018-07-13T00:37:23.964Z,980.25
2018-07-13T00:38:23.880Z,980.27
2018-07-13T00:39:23.820Z,980.27
2018-07-13T00:40:23.734Z,980.25
2018-07-13T00:41:23.662Z,980.25
2018-07-13T00:42:23.588Z,980.27
2018-07-13T00:43:23.523Z,980.26
2018-07-13T00:44:23.441Z,980.27
2018-07-13T00:45:23.366Z,980.29
2018-07-13T00:46:23.294Z,980.26
2018-07-13T00:47:23.219Z,980.27
2018-07-13T00:48:23.153Z,980.28
2018-07-13T00:49:23.082Z,980.27
2018-07-13T00:50:23.001Z,980.32
2018-07-13T00:51:22.929Z,980.33
2018-07-13T00:52:22.853Z,980.36
2018-07-13T00:53:22.799Z,980.35
2018-07-13T00:54:22.703Z,980.35
2018-07-13T00:55:22.637Z,980.34
2018-07-13T00:56:22.557Z,980.35
2018-07-13T00:57:22.485Z,980.34
2018-07-13T00:58:22.420Z,980.31
2018-07-13T00:59:22.335Z,980.33
2018-07-13T01:00:22.265Z,980.37
2018-07-13T01:01:22.201Z,980.28
2018-07-13T01:02:22.119Z,980.28
2018-07-13T01:03:22.048Z,980.27
2018-07-13T01:04:21.972Z,980.25
2018-07-13T01:05:21.898Z,980.25
2018-07-13T01:06:21.818Z,980.26
2018-07-13T01:07:21.758Z,980.25
2018-07-13T01:08:21.694Z,980.25
2018-07-13T01:09:21.596Z,980.25
2018-07-13T01:10:21.533Z,980.25
2018-07-13T01:11:21.453Z,980.25
2018-07-13T01:12:21.379Z,980.26
2018-07-13T01:13:21.324Z,980.26
2018-07-13T01:14:21.233Z,980.29
2018-07-13T01:15:21.155Z,980.29
2018-07-13T01:16:21.090Z,980.33
2018-07-13T01:17:21.011Z,980.33
2018-07-13T01:18:20.939Z,980.34
2018-07-13T01:19:20.867Z,980.33
2018-07-13T01:20:20.787Z,980.34
2018-07-13T01:21:20.715Z,980.31
2018-07-13T01:22:20.644Z,980.32
2018-07-13T01:23:20.568Z,980.30
2018-07-13T01:24:20.490Z,980.26
2018-07-13T01:25:20.425Z,980.28
2018-07-13T01:26:20.343Z,980.27
2018-07-13T01:27:20.275Z,980.29
2018-07-13T01:28:20.198Z,980.28
2018-07-13T01:29:20.133Z,980.30
2018-07-13T01:30:20.055Z,980.28
2018-07-13T01:31:19.983Z,980.32
2018-07-13T01:32:19.900Z,980.34
2018-07-13T01:33:19.839Z,980.32
2018-07-13T01:34:19.752Z,980.32
2018-07-13T01:35:19.689Z,980.33
2018-07-13T01:36:19.608Z,980.32
2018-07-13T01:37:19.532Z,980.33
2018-07-13T01:38:19.473Z,980.34
2018-07-13T01:39:19.385Z,980.33
2018-07-13T01:40:19.312Z,980.32
2018-07-13T01:41:19.239Z,980.34
2018-07-13T01:42:19.168Z,980.33
2018-07-13T01:43:19.092Z,980.35
2018-07-13T01:44:19.025Z,980.37
2018-07-13T01:45:18.944Z,980.34
2018-07-13T01:46:18.870Z,980.34
2018-07-13T01:47:18.796Z,980.34
2018-07-13T01:48:18.729Z,980.29
2018-07-13T01:49:18.650Z,980.32
2018-07-13T01:50:18.577Z,980.29
2018-07-13T01:51:18.512Z,980.29
2018-07-13T01:52:18.429Z,980.29
2018-07-13T01:53:18.359Z,980.27
2018-07-13T01:54:18.283Z,980.28
2018-07-13T01:55:18.206Z,980.32
2018-07-13T01:56:18.133Z,980.32
2018-07-13T01:57:18.069Z,980.31
2018-07-13T01:58:17.992Z,980.30
2018-07-13T01:59:17.912Z,980.30
2018-07-13T02:00:17.840Z,980.31
2018-07-13T02:01:17.766Z,980.27
2018-07-13T02:02:17.698Z,980.32
2018-07-13T02:03:17.626Z,980.34
2018-07-13T02:04:17.548Z,980.35
2018-07-13T02:05:17.472Z,980.33
2018-07-13T02:06:17.394Z,980.34
2018-07-13T02:07:17.323Z,980.34
2018-07-13T02:08:17.249Z,980.34
2018-07-13T02:09:17.238Z,980.38
2018-07-13T02:10:17.097Z,980.38
2018-07-13T02:11:17.026Z,980.36
2018-07-13T02:12:16.954Z,980.39
2018-07-13T02:13:16.927Z,980.41
2018-07-13T02:14:16.804Z,980.42
2018-07-13T02:15:16.737Z,980.37
2018-07-13T02:16:16.656Z,980.36
2018-07-13T02:17:16.592Z,980.37
2018-07-13T02:18:16.514Z,980.38
2018-07-13T02:19:16.437Z,980.37
2018-07-13T02:20:16.402Z,980.40
2018-07-13T02:21:16.293Z,980.40
2018-07-13T02:22:16.216Z,980.45
2018-07-13T02:23:16.145Z,980.45
2018-07-13T02:24:16.067Z,980.45
2018-07-13T02:25:15.998Z,980.46
2018-07-13T02:26:15.916Z,980.44
2018-07-13T02:27:15.847Z,980.47
2018-07-13T02:28:15.785Z,980.44
2018-07-13T02:29:15.693Z,980.48
2018-07-13T02:30:15.626Z,980.49
2018-07-13T02:31:15.550Z,980.49
2018-07-13T02:32:15.477Z,980.50
2018-07-13T02:33:15.399Z,980.52
2018-07-13T02:34:15.334Z,980.53
2018-07-13T02:35:15.256Z,980.54
2018-07-13T02:36:15.175Z,980.54
2018-07-13T02:37:15.104Z,980.55
2018-07-13T02:38:15.029Z,980.58
2018-07-13T02:39:14.965Z,980.55
2018-07-13T02:40:14.889Z,980.53
2018-07-13T02:41:14.808Z,980.48
2018-07-13T02:42:14.734Z,980.49
2018-07-13T02:43:14.657Z,980.51
2018-07-13T02:44:14.588Z,980.50
2018-07-13T02:45:14.532Z,980.51
2018-07-13T02:46:14.437Z,980.49
2018-07-13T02:47:14.369Z,980.51
2018-07-13T02:48:14.288Z,980.53
2018-07-13T02:49:14.213Z,980.52
2018-07-13T02:50:14.139Z,980.55
2018-07-13T02:51:14.061Z,980.52
2018-07-13T02:52:14.003Z,980.54
2018-07-13T02:53:13.916Z,980.50
2018-07-13T02:54:13.839Z,980.54
2018-07-13T02:55:13.770Z,980.52
2018-07-13T02:56:13.692Z,980.53
2018-07-13T02:57:13.616Z,980.52
2018-07-13T02:58:13.551Z,980.50
2018-07-13T02:59:13.468Z,980.52
2018-07-13T03:00:13.403Z,980.52
2018-07-13T03:01:13.318Z,980.56
2018-07-13T03:02:13.254Z,980.54
2018-07-13T03:03:13.178Z,980.54
2018-07-13T03:04:13.101Z,980.56
2018-07-13T03:05:13.023Z,980.52
2018-07-13T03:06:12.946Z,980.57
2018-07-13T03:07:12.877Z,980.59
2018-07-13T03:08:12.799Z,980.57
2018-07-13T03:09:12.721Z,980.56
2018-07-13T03:10:12.661Z,980.55
2018-07-13T03:11:12.575Z,980.58
2018-07-13T03:12:12.504Z,980.53
2018-07-13T03:13:12.435Z,980.56
2018-07-13T03:14:12.355Z,980.53
2018-07-13T03:15:12.277Z,980.59
2018-07-13T03:16:12.207Z,980.61
2018-07-13T03:17:12.128Z,980.60
2018-07-13T03:18:12.052Z,980.67
2018-07-13T03:19:11.977Z,980.66
2018-07-13T03:20:11.912Z,980.66
2018-07-13T03:21:11.834Z,980.70
2018-07-13T03:22:11.820Z,980.68
2018-07-13T03:23:11.683Z,980.66
2018-07-13T03:24:11.607Z,980.69
2018-07-13T03:25:11.539Z,980.69
2018-07-13T03:26:11.459Z,980.74
2018-07-13T03:27:11.389Z,980.76
2018-07-13T03:28:11.309Z,980.70
2018-07-13T03:29:11.238Z,980.79
2018-07-13T03:30:11.161Z,980.81
2018-07-13T03:31:11.090Z,980.82
2018-07-13T03:32:11.017Z,980.83
2018-07-13T03:33:10.941Z,980.85
2018-07-13T03:34:10.865Z,980.84
2018-07-13T03:35:10.795Z,980.82
2018-07-13T03:36:10.711Z,980.85
2018-07-13T03:37:10.637Z,980.86
2018-07-13T03:38:10.562Z,980.87
2018-07-13T03:39:10.492Z,980.85
2018-07-13T03:40:10.417Z,980.88
2018-07-13T03:41:10.343Z,980.87
2018-07-13T03:42:10.266Z,980.89
2018-07-13T03:43:10.198Z,980.89
2018-07-13T03:44:10.122Z,980.91
2018-07-13T03:45:10.045Z,980.90
2018-07-13T03:46:09.975Z,980.90
2018-07-13T03:47:09.896Z,980.92
2018-07-13T03:48:09.821Z,980.94
2018-07-13T03:49:09.744Z,980.93
2018-07-13T03:50:09.679Z,980.94
2018-07-13T03:51:09.594Z,980.93
2018-07-13T03:52:09.528Z,980.89
2018-07-13T03:53:09.446Z,980.95
2018-07-13T03:54:09.401Z,980.91
2018-07-13T03:55:09.304Z,980.94
2018-07-13T03:56:09.228Z,980.94
2018-07-13T03:57:09.149Z,980.94
2018-07-13T03:58:09.080Z,980.95
2018-07-13T03:59:08.999Z,980.98
2018-07-13T04:00:08.932Z,980.98
2018-07-13T04:01:08.855Z,981.01
2018-07-13T04:02:08.778Z,981.03
2018-07-13T04:03:08.704Z,981.00
2018-07-13T04:04:08.628Z,981.01
2018-07-13T04:05:08.563Z,981.08
2018-07-13T04:06:08.490Z,981.04
2018-07-13T04:07:08.452Z,981.09
2018-07-13T04:08:08.335Z,981.09
2018-07-13T04:09:08.257Z,981.09
2018-07-13T04:10:08.184Z,981.13
2018-07-13T04:11:08.110Z,981.13
2018-07-13T04:12:08.044Z,981.10
2018-07-13T04:13:07.962Z,981.10
2018-07-13T04:14:07.896Z,981.11
2018-07-13T04:15:07.814Z,981.08
2018-07-13T04:16:07.739Z,981.10
2018-07-13T04:17:07.665Z,981.07
2018-07-13T04:18:07.590Z,981.10
2018-07-13T04:19:07.520Z,981.08
2018-07-13T04:20:07.444Z,981.06
2018-07-13T04:21:07.365Z,981.07
2018-07-13T04:22:07.294Z,981.04
2018-07-13T04:23:07.223Z,981.03
2018-07-13T04:24:07.147Z,981.02
2018-07-13T04:25:07.081Z,981.04
2018-07-13T04:26:06.995Z,981.00
2018-07-13T04:27:06.926Z,981.02
2018-07-13T04:28:06.852Z,981.05
2018-07-13T04:29:06.776Z,981.02
2018-07-13T04:30:06.769Z,981.03
2018-07-13T04:31:06.638Z,981.04
2018-07-13T04:32:06.562Z,981.04
2018-07-13T04:33:06.480Z,981.04
2018-07-13T04:34:06.446Z,981.03
2018-07-13T04:35:06.338Z,981.05
2018-07-13T04:36:06.259Z,981.02
2018-07-13T04:37:06.190Z,980.99
2018-07-13T04:38:06.112Z,981.00
2018-07-13T04:39:06.038Z,981.00
2018-07-13T04:40:05.963Z,981.03
2018-07-13T04:41:05.916Z,981.04
2018-07-13T04:42:05.823Z,981.06
2018-07-13T04:43:05.758Z,981.06
2018-07-13T04:44:05.669Z,981.10
2018-07-13T04:45:05.593Z,981.09
2018-07-13T04:46:05.521Z,981.11
2018-07-13T04:47:05.460Z,981.09
2018-07-13T04:48:05.379Z,981.07
2018-07-13T04:49:05.309Z,981.11
2018-07-13T04:50:05.229Z,981.08
2018-07-13T04:51:05.160Z,981.07
2018-07-13T04:52:05.078Z,981.12
2018-07-13T04:53:05.137Z,981.07
2018-07-13T04:54:04.930Z,981.05
2018-07-13T04:55:04.873Z,981.04
2018-07-13T04:56:04.783Z,981.06
2018-07-13T04:57:04.710Z,981.06
2018-07-13T04:58:04.637Z,981.03
2018-07-13T04:59:04.562Z,981.03
2018-07-13T05:00:04.493Z,981.06
2018-07-13T05:01:04.421Z,981.00
2018-07-13T05:02:04.342Z,981.05
2018-07-13T05:03:04.266Z,981.01
2018-07-13T05:04:04.193Z,981.06
2018-07-13T05:05:04.123Z,981.05
2018-07-13T05:06:04.051Z,981.10
2018-07-13T05:07:03.976Z,981.14
2018-07-13T05:08:03.902Z,981.13
2018-07-13T05:09:03.822Z,981.17
2018-07-13T05:10:03.759Z,981.13
2018-07-13T05:11:03.676Z,981.16
2018-07-13T05:12:03.607Z,981.17
2018-07-13T05:13:03.565Z,981.18
2018-07-13T05:14:03.464Z,981.17
2018-07-13T05:15:03.381Z,981.23
2018-07-13T05:16:03.309Z,981.24
2018-07-13T05:17:03.245Z,981.25
2018-07-13T05:18:03.173Z,981.23
2018-07-13T05:19:03.091Z,981.21
2018-07-13T05:20:03.016Z,981.19
2018-07-13T05:21:02.941Z,981.20
2018-07-13T05:22:02.871Z,981.17
2018-07-13T05:23:02.795Z,981.12
2018-07-13T05:24:02.727Z,981.10
2018-07-13T05:25:02.648Z,981.14
2018-07-13T05:26:02.587Z,981.13
2018-07-13T05:27:02.503Z,981.16
2018-07-13T05:28:02.432Z,981.12
2018-07-13T05:29:02.360Z,981.14
2018-07-13T05:30:02.286Z,981.17
2018-07-13T05:31:02.209Z,981.16
2018-07-13T05:32:02.152Z,981.17
2018-07-13T05:33:02.062Z,981.18
2018-07-13T05:34:01.992Z,981.17
2018-07-13T05:35:01.943Z,981.20
2018-07-13T05:36:01.852Z,981.19
2018-07-13T05:37:01.783Z,981.21
2018-07-13T05:38:01.705Z,981.17
2018-07-13T05:39:01.638Z,981.20
2018-07-13T05:40:01.554Z,981.20
2018-07-13T05:41:01.478Z,981.22
2018-07-13T05:42:01.422Z,981.19
2018-07-13T05:43:01.334Z,981.21
2018-07-13T05:44:01.271Z,981.19
2018-07-13T05:45:01.186Z,981.21
2018-07-13T05:46:01.116Z,981.23
2018-07-13T05:47:01.045Z,981.23
2018-07-13T05:48:00.969Z,981.21
2018-07-13T05:49:00.897Z,981.23
2018-07-13T05:50:00.853Z,981.24
2018-07-13T05:51:00.805Z,981.22
2018-07-13T05:52:00.716Z,981.21
2018-07-13T05:53:00.674Z,981.21
2018-07-13T05:54:00.595Z,981.19
2018-07-13T05:55:00.508Z,981.21
2018-07-13T05:56:00.437Z,981.17
2018-07-13T05:57:00.377Z,981.21
2018-07-13T05:58:00.346Z,981.21
2018-07-13T05:59:00.213Z,981.25
2018-07-13T06:00:00.141Z,981.19
2018-07-13T06:01:00.090Z,981.22
2018-07-13T06:02:00.018Z,981.23
2018-07-13T06:02:59.941Z,981.27
2018-07-13T06:03:59.916Z,981.26
2018-07-13T06:04:59.788Z,981.26
2018-07-13T06:06:00.628Z,981.29
2018-07-13T06:06:59.646Z,981.27
2018-07-13T06:07:59.591Z,981.26
2018-07-13T06:08:59.515Z,981.29
2018-07-13T06:09:59.424Z,981.26
2018-07-13T06:11:00.170Z,981.27
2018-07-13T06:11:59.296Z,981.28
2018-07-13T06:12:59.223Z,981.27
2018-07-13T06:13:59.136Z,981.27
2018-07-13T06:14:59.080Z,981.28
2018-07-13T06:15:59.005Z,981.32
2018-07-13T06:16:58.895Z,981.27
2018-07-13T06:17:58.815Z,981.31
2018-07-13T06:18:58.760Z,981.30
2018-07-13T06:19:58.750Z,981.30
2018-07-13T06:20:58.627Z,981.27
2018-07-13T06:21:58.554Z,981.30
2018-07-13T06:22:58.477Z,981.29
2018-07-13T06:23:58.415Z,981.29
2018-07-13T06:24:58.366Z,981.28
2018-07-13T06:25:58.277Z,981.29
2018-07-13T06:26:58.191Z,981.28
2018-07-13T06:27:58.128Z,981.25
2018-07-13T06:28:58.049Z,981.26
2018-07-13T06:29:57.973Z,981.29
2018-07-13T06:30:57.915Z,981.27
2018-07-13T06:31:57.831Z,981.30
2018-07-13T06:32:57.762Z,981.33
2018-07-13T06:33:57.848Z,981.28
2018-07-13T06:34:57.614Z,981.29
2018-07-13T06:35:57.549Z,981.27
2018-07-13T06:36:57.412Z,981.33
2018-07-13T06:37:57.345Z,981.30
2018-07-13T06:38:57.275Z,981.30
2018-07-13T06:39:57.199Z,981.34
2018-07-13T06:40:57.131Z,981.33
2018-07-13T06:41:57.049Z,981.30
2018-07-13T06:42:56.978Z,981.33
2018-07-13T06:43:56.910Z,981.31
2018-07-13T06:44:56.830Z,981.29
2018-07-13T06:45:56.763Z,981.28
2018-07-13T06:46:56.692Z,981.30
2018-07-13T06:47:56.623Z,981.28
2018-07-13T06:48:56.543Z,981.32
2018-07-13T06:49:56.527Z,981.25
2018-07-13T06:50:56.399Z,981.29
2018-07-13T06:51:56.328Z,981.29
2018-07-13T06:52:56.270Z,981.33
2018-07-13T06:53:56.234Z,981.32
2018-07-13T06:54:56.144Z,981.32
2018-07-13T06:55:56.103Z,981.38
2018-07-13T06:56:56.050Z,981.34
2018-07-13T06:57:55.941Z,981.36
2018-07-13T06:58:55.870Z,981.39
2018-07-13T06:59:55.752Z,981.34
2018-07-13T07:00:55.724Z,981.37
2018-07-13T07:01:55.646Z,981.40
2018-07-13T07:02:55.580Z,981.38
2018-07-13T07:03:55.520Z,981.38
2018-07-13T07:04:55.437Z,981.41
2018-07-13T07:05:55.334Z,981.39
2018-07-13T07:06:55.323Z,981.38
2018-07-13T07:07:55.238Z,981.45
2018-07-13T07:08:55.116Z,981.39
2018-07-13T07:09:55.082Z,981.41
2018-07-13T07:10:54.995Z,981.41
2018-07-13T07:11:54.913Z,981.46
2018-07-13T07:12:54.874Z,981.45
2018-07-13T07:13:54.803Z,981.46
2018-07-13T07:14:54.671Z,981.46
2018-07-13T07:15:54.603Z,981.45
2018-07-13T07:16:54.524Z,981.50
2018-07-13T07:17:54.517Z,981.47
2018-07-13T07:18:54.449Z,981.49
2018-07-13T07:19:54.387Z,981.46
2018-07-13T07:20:54.302Z,981.49
2018-07-13T07:21:54.268Z,981.48
2018-07-13T07:22:54.167Z,981.51
2018-07-13T07:23:55.023Z,981.49
2018-07-13T07:24:54.042Z,981.47
2018-07-13T07:25:53.977Z,981.53
2018-07-13T07:26:53.856Z,981.52
2018-07-13T07:27:53.778Z,981.50
2018-07-13T07:28:53.728Z,981.51
2018-07-13T07:29:53.664Z,981.49
2018-07-13T07:30:53.584Z,981.48
2018-07-13T07:31:53.451Z,981.51
2018-07-13T07:32:53.377Z,981.52
2018-07-13T07:33:53.304Z,981.52
2018-07-13T07:34:53.283Z,981.50
2018-07-13T07:35:53.162Z,981.52
2018-07-13T07:36:53.098Z,981.49
2018-07-13T07:37:53.021Z,981.52
2018-07-13T07:38:52.953Z,981.50
2018-07-13T07:39:52.876Z,981.47
2018-07-13T07:40:52.818Z,981.51
2018-07-13T07:41:52.732Z,981.51
2018-07-13T07:42:52.679Z,981.46
2018-07-13T07:43:52.631Z,981.45
2018-07-13T07:44:52.523Z,981.49
2018-07-13T07:45:52.469Z,981.50
2018-07-13T07:46:52.376Z,981.49
2018-07-13T07:47:52.303Z,981.44
2018-07-13T07:48:52.244Z,981.47
2018-07-13T07:49:52.175Z,981.40
2018-07-13T07:50:52.100Z,981.45
2018-07-13T07:51:52.021Z,981.46
2018-07-13T07:52:51.945Z,981.43
2018-07-13T07:53:51.882Z,981.44
2018-07-13T07:54:51.813Z,981.46
2018-07-13T07:55:51.735Z,981.45
2018-07-13T07:56:51.665Z,981.44
2018-07-13T07:57:51.596Z,981.42
2018-07-13T07:58:51.523Z,981.40
2018-07-13T07:59:51.447Z,981.42
2018-07-13T08:00:51.385Z,981.43
2018-07-13T08:01:51.323Z,981.42
2018-07-13T08:02:51.260Z,981.41
2018-07-13T08:03:51.162Z,981.41
2018-07-13T08:04:51.089Z,981.41
2018-07-13T08:05:51.028Z,981.41
2018-07-13T08:06:51.330Z,981.44
2018-07-13T08:07:50.885Z,981.41
2018-07-13T08:08:50.812Z,981.42
2018-07-13T08:09:50.740Z,981.42
2018-07-13T08:10:50.665Z,981.43
2018-07-13T08:11:50.596Z,981.42
2018-07-13T08:12:50.519Z,981.42
2018-07-13T08:13:50.625Z,981.41
2018-07-13T08:14:50.385Z,981.45
2018-07-13T08:15:50.306Z,981.42
2018-07-13T08:16:50.235Z,981.35
2018-07-13T08:17:50.218Z,981.38
2018-07-13T08:18:50.140Z,981.39
2018-07-13T08:19:50.058Z,981.39
2018-07-13T08:20:50.017Z,981.41
2018-07-13T08:21:50.685Z,981.39
2018-07-13T08:22:49.824Z,981.38
2018-07-13T08:23:49.791Z,981.44
2018-07-13T08:24:49.730Z,981.39
2018-07-13T08:25:49.644Z,981.41
2018-07-13T08:26:49.610Z,981.40
2018-07-13T08:27:49.520Z,981.40
2018-07-13T08:28:49.480Z,981.39
2018-07-13T08:29:49.381Z,981.40
2018-07-13T08:30:49.301Z,981.37
2018-07-13T08:31:49.261Z,981.36
2018-07-13T08:32:49.710Z,981.38
2018-07-13T08:33:49.064Z,981.38
2018-07-13T08:34:49.039Z,981.35
2018-07-13T08:35:48.948Z,981.34
2018-07-13T08:36:49.550Z,981.31
2018-07-13T08:37:49.758Z,981.33
2018-07-13T08:38:48.735Z,981.34
2018-07-13T08:39:48.678Z,981.32
2018-07-13T08:40:48.599Z,981.33
2018-07-13T08:41:48.501Z,981.28
2018-07-13T08:42:48.523Z,981.30
2018-07-13T08:43:48.366Z,981.34
2018-07-13T08:44:48.304Z,981.34
2018-07-13T08:45:48.238Z,981.31
2018-07-13T08:46:48.144Z,981.33
2018-07-13T08:47:48.709Z,981.32
2018-07-13T08:48:48.041Z,981.32
2018-07-13T08:49:47.963Z,981.32
2018-07-13T08:50:47.914Z,981.28
2018-07-13T08:51:47.820Z,981.30
2018-07-13T08:52:47.731Z,981.32
2018-07-13T08:53:47.677Z,981.29
2018-07-13T08:54:47.593Z,981.32
2018-07-13T08:55:47.520Z,981.29
2018-07-13T08:56:47.467Z,981.30
2018-07-13T08:57:47.337Z,981.33
2018-07-13T08:58:48.052Z,981.31
2018-07-13T08:59:47.290Z,981.29
2018-07-13T09:00:47.171Z,981.30
2018-07-13T09:01:47.783Z,981.32
2018-07-13T09:02:47.064Z,981.31
2018-07-13T09:03:46.902Z,981.33
2018-07-13T09:04:46.973Z,981.40
2018-07-13T09:05:46.892Z,981.36
2018-07-13T09:06:46.728Z,981.36
2018-07-13T09:07:46.684Z,981.35
2018-07-13T09:08:46.622Z,981.37
2018-07-13T09:09:46.521Z,981.39
2018-07-13T09:10:46.483Z,981.41
2018-07-13T09:11:46.400Z,981.37
2018-07-13T09:12:46.333Z,981.38
2018-07-13T09:13:46.261Z,981.40
2018-07-13T09:14:46.146Z,981.40
2018-07-13T09:15:46.139Z,981.35
2018-07-13T09:16:46.036Z,981.33
2018-07-13T09:17:45.962Z,981.32
2018-07-13T09:18:45.843Z,981.33
2018-07-13T09:19:45.780Z,981.34
2018-07-13T09:20:45.700Z,981.36
2018-07-13T09:21:45.633Z,981.40
2018-07-13T09:22:45.569Z,981.42
2018-07-13T09:23:45.501Z,981.40
2018-07-13T09:24:45.426Z,981.39
2018-07-13T09:25:45.355Z,981.38
2018-07-13T09:26:45.308Z,981.40
2018-07-13T09:27:45.217Z,981.40
2018-07-13T09:28:45.143Z,981.41
2018-07-13T09:29:45.653Z,981.42
2018-07-13T09:30:45.008Z,981.43
2018-07-13T09:31:44.932Z,981.43
2018-07-13T09:32:44.864Z,981.37
2018-07-13T09:33:44.846Z,981.43
2018-07-13T09:34:44.727Z,981.37
2018-07-13T09:35:44.660Z,981.39
2018-07-13T09:36:44.581Z,981.40
2018-07-13T09:37:44.513Z,981.37
2018-07-13T09:38:44.451Z,981.34
2018-07-13T09:39:44.379Z,981.33
2018-07-13T09:40:44.306Z,981.39
2018-07-13T09:41:44.241Z,981.37
2018-07-13T09:42:44.166Z,981.40
2018-07-13T09:43:44.098Z,981.36
2018-07-13T09:44:44.086Z,981.36
2018-07-13T09:45:44.020Z,981.33
2018-07-13T09:46:43.943Z,981.31
2018-07-13T09:47:43.825Z,981.33
2018-07-13T09:48:43.750Z,981.30
2018-07-13T09:49:43.678Z,981.34
2018-07-13T09:50:43.609Z,981.30
2018-07-13T09:51:43.560Z,981.32
2018-07-13T09:52:43.471Z,981.34
2018-07-13T09:53:43.584Z,981.34
2018-07-13T09:54:44.384Z,981.36
2018-07-13T09:55:43.344Z,981.35
2018-07-13T09:56:44.075Z,981.34
2018-07-13T09:57:43.192Z,981.37
2018-07-13T09:58:43.126Z,981.34
2018-07-13T09:59:43.075Z,981.35
2018-07-13T10:00:43.022Z,981.35
2018-07-13T10:01:42.923Z,981.37
2018-07-13T10:02:42.852Z,981.39
2018-07-13T10:03:42.794Z,981.35
2018-07-13T10:04:42.693Z,981.35
2018-07-13T10:05:42.647Z,981.34
2018-07-13T10:06:42.571Z,981.31
2018-07-13T10:07:42.463Z,981.31
2018-07-13T10:08:42.438Z,981.27
2018-07-13T10:09:42.412Z,981.30
2018-07-13T10:10:42.293Z,981.30
2018-07-13T10:11:42.227Z,981.27
2018-07-13T10:12:42.176Z,981.29
2018-07-13T10:13:42.086Z,981.30
2018-07-13T10:14:41.989Z,981.28
2018-07-13T10:15:41.948Z,981.31
2018-07-13T10:16:41.828Z,981.27
2018-07-13T10:17:41.750Z,981.26
2018-07-13T10:18:41.681Z,981.26
2018-07-13T10:19:41.608Z,981.27
2018-07-13T10:20:41.588Z,981.26
2018-07-13T10:21:41.471Z,981.25
2018-07-13T10:22:41.402Z,981.26
2018-07-13T10:23:41.339Z,981.26
2018-07-13T10:24:41.260Z,981.25
2018-07-13T10:25:41.221Z,981.28
2018-07-13T10:26:41.159Z,981.27
2018-07-13T10:27:41.132Z,981.24
2018-07-13T10:28:41.032Z,981.24
2018-07-13T10:29:41.670Z,981.22
2018-07-13T10:30:40.872Z,981.25
2018-07-13T10:31:40.829Z,981.26
2018-07-13T10:32:40.760Z,981.23
2018-07-13T10:33:40.676Z,981.25
2018-07-13T10:34:40.663Z,981.21
2018-07-13T10:35:40.579Z,981.28
2018-07-13T10:36:40.491Z,981.32
2018-07-13T10:37:40.376Z,981.30
2018-07-13T10:38:40.390Z,981.29
2018-07-13T10:39:40.314Z,981.29
2018-07-13T10:40:40.237Z,981.30
2018-07-13T10:41:40.189Z,981.28
2018-07-13T10:42:40.062Z,981.27
2018-07-13T10:43:40.023Z,981.28
2018-07-13T10:44:39.933Z,981.28
2018-07-13T10:45:39.931Z,981.28
2018-07-13T10:46:39.804Z,981.29
2018-07-13T10:47:39.838Z,981.24
2018-07-13T10:48:39.853Z,981.28
2018-07-13T10:49:39.574Z,981.30
2018-07-13T10:50:39.485Z,981.28
2018-07-13T10:51:39.439Z,981.27
2018-07-13T10:52:39.433Z,981.27
2018-07-13T10:53:40.235Z,981.26
2018-07-13T10:54:39.224Z,981.24
2018-07-13T10:55:40.094Z,981.24
2018-07-13T10:56:39.064Z,981.22
2018-07-13T10:57:38.997Z,981.24
2018-07-13T10:58:38.987Z,981.22
2018-07-13T10:59:38.863Z,981.22
2018-07-13T11:00:38.793Z,981.22
2018-07-13T11:01:38.720Z,981.22
2018-07-13T11:02:38.698Z,981.24
2018-07-13T11:03:38.617Z,981.25
2018-07-13T11:04:38.513Z,981.25
2018-07-13T11:05:38.459Z,981.26
2018-07-13T11:06:38.373Z,981.27
2018-07-13T11:07:38.305Z,981.24
2018-07-13T11:08:38.240Z,981.19
2018-07-13T11:09:38.167Z,981.22
2018-07-13T11:10:38.101Z,981.19
2018-07-13T11:11:38.045Z,981.18
2018-07-13T11:12:37.965Z,981.18
2018-07-13T11:13:37.959Z,981.19
2018-07-13T11:14:37.824Z,981.15
2018-07-13T11:15:37.757Z,981.15
2018-07-13T11:16:37.701Z,981.14
2018-07-13T11:17:37.636Z,981.14
2018-07-13T11:18:37.563Z,981.11
2018-07-13T11:19:37.479Z,981.10
2018-07-13T11:20:37.412Z,981.09
2018-07-13T11:21:37.342Z,981.09
2018-07-13T11:22:37.275Z,981.09
2018-07-13T11:23:37.212Z,981.06
2018-07-13T11:24:37.147Z,981.05
2018-07-13T11:25:37.076Z,981.05
2018-07-13T11:26:37.009Z,981.04
2018-07-13T11:27:36.933Z,981.03
2018-07-13T11:28:36.866Z,981.03
2018-07-13T11:29:36.816Z,981.02
2018-07-13T11:30:36.734Z,981.00
2018-07-13T11:31:36.665Z,981.02
2018-07-13T11:32:36.591Z,981.03
2018-07-13T11:33:36.523Z,981.02
2018-07-13T11:34:36.463Z,981.02
2018-07-13T11:35:36.391Z,980.98
2018-07-13T11:36:36.321Z,980.98
2018-07-13T11:37:36.259Z,980.98
2018-07-13T11:38:36.185Z,980.99
2018-07-13T11:39:36.116Z,980.99
2018-07-13T11:40:36.051Z,980.99
2018-07-13T11:41:35.990Z,980.96
2018-07-13T11:42:35.915Z,980.95
2018-07-13T11:43:35.850Z,980.97
2018-07-13T11:44:35.778Z,980.96
2018-07-13T11:45:35.746Z,980.96
2018-07-13T11:46:35.650Z,980.95
2018-07-13T11:47:35.569Z,980.94
2018-07-13T11:48:35.513Z,980.94
2018-07-13T11:49:35.439Z,980.93
2018-07-13T11:50:35.420Z,980.93
2018-07-13T11:51:35.361Z,980.94
2018-07-13T11:52:35.241Z,980.94
2018-07-13T11:53:35.163Z,980.97
2018-07-13T11:54:35.096Z,980.94
2018-07-13T11:55:35.032Z,980.93
2018-07-13T11:56:34.966Z,980.93
2018-07-13T11:57:34.888Z,980.93
2018-07-13T11:58:34.820Z,980.97
2018-07-13T11:59:34.753Z,980.95
2018-07-13T12:00:34.720Z,980.94
2018-07-13T12:01:34.624Z,980.92
2018-07-13T12:02:34.569Z,980.90
2018-07-13T12:03:34.482Z,980.94
2018-07-13T12:04:34.411Z,980.93
2018-07-13T12:05:34.345Z,980.93
2018-07-13T12:06:34.273Z,980.95
2018-07-13T12:07:34.310Z,980.92
2018-07-13T12:08:34.143Z,980.92
2018-07-13T12:09:34.180Z,980.92
2018-07-13T12:10:34.061Z,980.89
2018-07-13T12:11:34.003Z,980.91
2018-07-13T12:12:33.945Z,980.93
2018-07-13T12:13:33.877Z,980.87
2018-07-13T12:14:33.786Z,980.90
2018-07-13T12:15:33.822Z,980.91
2018-07-13T12:16:33.765Z,980.88
2018-07-13T12:17:33.670Z,980.89
2018-07-13T12:18:33.502Z,980.90
2018-07-13T12:19:33.462Z,980.85
2018-07-13T12:20:33.389Z,980.85
2018-07-13T12:21:33.319Z,980.86
2018-07-13T12:22:33.191Z,980.85
2018-07-13T12:23:33.172Z,980.86
2018-07-13T12:24:33.056Z,980.88
2018-07-13T12:25:32.991Z,980.87
2018-07-13T12:26:32.922Z,980.91
2018-07-13T12:27:32.857Z,980.90